sensor_id;sensor_type;location;lat;lon;timestamp;P1;durP1;ratioP1;P2;durP2;ratioP2
71969;SDS011;59838;52.152;5.436;2022-08-18T00:01:29;10.23;;;8.80;;
71969;SDS011;59838;52.152;5.436;2022-08-18T00:03:57;10.18;;;8.85;;
71969;SDS011;59838;52.152;5.436;2022-08-18T00:06:51;12.52;;;9.90;;
71969;SDS011;59838;52.152;5.436;2022-08-18T00:09:18;20.88;;;10.93;;
71969;SDS011;59838;52.152;5.436;2022-08-18T00:11:59;12.63;;;10.68;;
71969;SDS011;59838;52.152;5.436;2022-08-18T00:14:26;10.50;;;9.10;;
71969;SDS011;59838;52.152;5.436;2022-08-18T00:16:59;20.67;;;9.82;;
71969;SDS011;59838;52.152;5.436;2022-08-18T00:19:26;11.63;;;9.43;;
71969;SDS011;59838;52.152;5.436;2022-08-18T00:22:13;13.88;;;10.05;;
71969;SDS011;59838;52.152;5.436;2022-08-18T00:24:59;17.45;;;11.05;;
71969;SDS011;59838;52.152;5.436;2022-08-18T00:27:27;16.47;;;10.37;;
71969;SDS011;59838;52.152;5.436;2022-08-18T00:30:03;12.98;;;9.88;;
71969;SDS011;59838;52.152;5.436;2022-08-18T00:32:36;13.77;;;10.63;;
71969;SDS011;59838;52.152;5.436;2022-08-18T00:35:15;16.00;;;10.68;;
71969;SDS011;59838;52.152;5.436;2022-08-18T00:37:46;12.65;;;11.13;;
71969;SDS011;59838;52.152;5.436;2022-08-18T00:40:23;14.30;;;10.67;;
71969;SDS011;59838;52.152;5.436;2022-08-18T00:43:04;14.05;;;10.77;;
71969;SDS011;59838;52.152;5.436;2022-08-18T00:45:34;16.38;;;11.13;;
71969;SDS011;59838;52.152;5.436;2022-08-18T00:48:10;15.63;;;10.68;;
71969;SDS011;59838;52.152;5.436;2022-08-18T00:53:26;14.00;;;11.53;;
71969;SDS011;59838;52.152;5.436;2022-08-18T00:56:04;13.82;;;10.52;;
71969;SDS011;59838;52.152;5.436;2022-08-18T00:58:45;12.50;;;10.32;;
71969;SDS011;59838;52.152;5.436;2022-08-18T01:01:18;11.82;;;9.88;;
71969;SDS011;59838;52.152;5.436;2022-08-18T01:04:03;12.75;;;9.88;;
71969;SDS011;59838;52.152;5.436;2022-08-18T01:06:38;11.67;;;9.07;;
71969;SDS011;59838;52.152;5.436;2022-08-18T01:09:15;13.00;;;9.38;;
71969;SDS011;59838;52.152;5.436;2022-08-18T01:11:43;14.88;;;10.73;;
71969;SDS011;59838;52.152;5.436;2022-08-18T01:14:16;10.90;;;9.80;;
71969;SDS011;59838;52.152;5.436;2022-08-18T01:16:45;15.40;;;11.43;;
71969;SDS011;59838;52.152;5.436;2022-08-18T01:19:38;16.43;;;11.20;;
71969;SDS011;59838;52.152;5.436;2022-08-18T01:25:21;14.73;;;10.77;;
71969;SDS011;59838;52.152;5.436;2022-08-18T01:28:08;18.80;;;11.68;;
71969;SDS011;59838;52.152;5.436;2022-08-18T01:30:45;11.82;;;9.68;;
71969;SDS011;59838;52.152;5.436;2022-08-18T01:33:21;15.40;;;10.93;;
71969;SDS011;59838;52.152;5.436;2022-08-18T01:36:02;12.68;;;10.10;;
71969;SDS011;59838;52.152;5.436;2022-08-18T01:38:47;11.55;;;10.32;;
71969;SDS011;59838;52.152;5.436;2022-08-18T01:41:17;12.00;;;10.38;;
71969;SDS011;59838;52.152;5.436;2022-08-18T01:44:07;16.02;;;11.43;;
71969;SDS011;59838;52.152;5.436;2022-08-18T01:46:39;15.23;;;11.73;;
71969;SDS011;59838;52.152;5.436;2022-08-18T01:49:15;16.02;;;12.25;;
71969;SDS011;59838;52.152;5.436;2022-08-18T01:51:44;14.02;;;11.25;;
71969;SDS011;59838;52.152;5.436;2022-08-18T01:54:12;21.27;;;12.63;;
71969;SDS011;59838;52.152;5.436;2022-08-18T01:56:47;17.27;;;11.93;;
71969;SDS011;59838;52.152;5.436;2022-08-18T01:59:14;16.83;;;12.23;;
71969;SDS011;59838;52.152;5.436;2022-08-18T02:01:42;18.58;;;13.63;;
71969;SDS011;59838;52.152;5.436;2022-08-18T02:04:19;17.40;;;11.85;;
71969;SDS011;59838;52.152;5.436;2022-08-18T02:07:02;17.73;;;12.30;;
71969;SDS011;59838;52.152;5.436;2022-08-18T02:09:35;18.85;;;12.18;;
71969;SDS011;59838;52.152;5.436;2022-08-18T02:12:10;16.17;;;12.30;;
71969;SDS011;59838;52.152;5.436;2022-08-18T02:14:38;18.40;;;13.13;;
71969;SDS011;59838;52.152;5.436;2022-08-18T02:17:06;14.07;;;11.60;;
71969;SDS011;59838;52.152;5.436;2022-08-18T02:19:43;14.48;;;11.20;;
71969;SDS011;59838;52.152;5.436;2022-08-18T02:22:20;19.20;;;12.20;;
71969;SDS011;59838;52.152;5.436;2022-08-18T02:24:47;17.63;;;12.27;;
71969;SDS011;59838;52.152;5.436;2022-08-18T02:27:22;17.80;;;12.52;;
71969;SDS011;59838;52.152;5.436;2022-08-18T02:29:48;15.00;;;11.10;;
71969;SDS011;59838;52.152;5.436;2022-08-18T02:32:28;13.60;;;10.88;;
71969;SDS011;59838;52.152;5.436;2022-08-18T02:35:05;15.50;;;11.40;;
71969;SDS011;59838;52.152;5.436;2022-08-18T02:37:37;13.07;;;10.13;;
71969;SDS011;59838;52.152;5.436;2022-08-18T02:40:12;14.52;;;10.70;;
71969;SDS011;59838;52.152;5.436;2022-08-18T02:42:41;14.07;;;10.20;;
71969;SDS011;59838;52.152;5.436;2022-08-18T02:45:15;13.60;;;10.32;;
71969;SDS011;59838;52.152;5.436;2022-08-18T02:47:50;12.23;;;10.57;;
71969;SDS011;59838;52.152;5.436;2022-08-18T02:50:28;12.60;;;10.17;;
71969;SDS011;59838;52.152;5.436;2022-08-18T02:52:55;12.98;;;10.52;;
71969;SDS011;59838;52.152;5.436;2022-08-18T02:55:22;15.05;;;10.63;;
71969;SDS011;59838;52.152;5.436;2022-08-18T02:57:59;13.95;;;9.77;;
71969;SDS011;59838;52.152;5.436;2022-08-18T03:00:28;12.77;;;10.30;;
71969;SDS011;59838;52.152;5.436;2022-08-18T03:03:03;14.63;;;9.53;;
71969;SDS011;59838;52.152;5.436;2022-08-18T03:05:31;14.52;;;10.93;;
71969;SDS011;59838;52.152;5.436;2022-08-18T03:08:07;11.15;;;9.60;;
71969;SDS011;59838;52.152;5.436;2022-08-18T03:10:38;14.40;;;10.30;;
71969;SDS011;59838;52.152;5.436;2022-08-18T03:13:14;16.67;;;10.38;;
71969;SDS011;59838;52.152;5.436;2022-08-18T03:15:44;13.47;;;10.77;;
71969;SDS011;59838;52.152;5.436;2022-08-18T03:18:22;15.77;;;10.68;;
71969;SDS011;59838;52.152;5.436;2022-08-18T03:20:51;15.13;;;10.10;;
71969;SDS011;59838;52.152;5.436;2022-08-18T03:23:32;12.40;;;9.95;;
71969;SDS011;59838;52.152;5.436;2022-08-18T03:26:27;16.73;;;9.98;;
71969;SDS011;59838;52.152;5.436;2022-08-18T03:29:04;15.17;;;9.93;;
71969;SDS011;59838;52.152;5.436;2022-08-18T03:31:32;16.55;;;9.77;;
71969;SDS011;59838;52.152;5.436;2022-08-18T03:34:23;11.52;;;9.75;;
71969;SDS011;59838;52.152;5.436;2022-08-18T03:36:52;12.30;;;10.18;;
71969;SDS011;59838;52.152;5.436;2022-08-18T03:39:32;11.90;;;9.48;;
71969;SDS011;59838;52.152;5.436;2022-08-18T03:42:09;11.87;;;9.37;;
71969;SDS011;59838;52.152;5.436;2022-08-18T03:45:03;11.90;;;8.95;;
71969;SDS011;59838;52.152;5.436;2022-08-18T03:47:43;10.88;;;8.30;;
71969;SDS011;59838;52.152;5.436;2022-08-18T03:50:22;10.07;;;8.38;;
71969;SDS011;59838;52.152;5.436;2022-08-18T03:52:51;12.82;;;8.68;;
71969;SDS011;59838;52.152;5.436;2022-08-18T03:55:33;12.57;;;9.07;;
71969;SDS011;59838;52.152;5.436;2022-08-18T03:58:04;11.45;;;9.07;;
71969;SDS011;59838;52.152;5.436;2022-08-18T04:00:37;12.88;;;9.75;;
71969;SDS011;59838;52.152;5.436;2022-08-18T04:03:10;13.73;;;9.68;;
71969;SDS011;59838;52.152;5.436;2022-08-18T04:06:00;13.48;;;8.93;;
71969;SDS011;59838;52.152;5.436;2022-08-18T04:08:38;10.90;;;8.67;;
71969;SDS011;59838;52.152;5.436;2022-08-18T04:11:18;10.57;;;7.78;;
71969;SDS011;59838;52.152;5.436;2022-08-18T04:14:13;51.83;;;7.40;;
71969;SDS011;59838;52.152;5.436;2022-08-18T04:17:09;31.83;;;6.57;;
71969;SDS011;59838;52.152;5.436;2022-08-18T04:19:54;28.08;;;7.60;;
71969;SDS011;59838;52.152;5.436;2022-08-18T04:22:43;7.63;;;6.30;;
71969;SDS011;59838;52.152;5.436;2022-08-18T04:25:18;9.70;;;6.47;;
71969;SDS011;59838;52.152;5.436;2022-08-18T04:28:00;7.65;;;6.82;;
71969;SDS011;59838;52.152;5.436;2022-08-18T04:30:30;7.03;;;6.32;;
71969;SDS011;59838;52.152;5.436;2022-08-18T04:33:04;8.98;;;8.07;;
71969;SDS011;59838;52.152;5.436;2022-08-18T04:35:34;8.27;;;7.47;;
71969;SDS011;59838;52.152;5.436;2022-08-18T04:38:02;9.75;;;8.10;;
71969;SDS011;59838;52.152;5.436;2022-08-18T04:40:38;9.48;;;8.18;;
71969;SDS011;59838;52.152;5.436;2022-08-18T04:43:15;13.27;;;8.77;;
71969;SDS011;59838;52.152;5.436;2022-08-18T04:46:03;12.80;;;9.65;;
71969;SDS011;59838;52.152;5.436;2022-08-18T04:48:48;12.03;;;9.47;;
71969;SDS011;59838;52.152;5.436;2022-08-18T04:51:34;14.80;;;10.30;;
71969;SDS011;59838;52.152;5.436;2022-08-18T04:54:31;15.43;;;10.32;;
71969;SDS011;59838;52.152;5.436;2022-08-18T04:57:17;15.73;;;9.95;;
71969;SDS011;59838;52.152;5.436;2022-08-18T05:00:00;14.38;;;10.15;;
71969;SDS011;59838;52.152;5.436;2022-08-18T05:02:36;16.93;;;11.37;;
71969;SDS011;59838;52.152;5.436;2022-08-18T05:05:11;16.23;;;11.38;;
71969;SDS011;59838;52.152;5.436;2022-08-18T05:07:42;15.32;;;11.18;;
71969;SDS011;59838;52.152;5.436;2022-08-18T05:10:20;13.45;;;11.23;;
71969;SDS011;59838;52.152;5.436;2022-08-18T05:12:47;15.15;;;9.95;;
71969;SDS011;59838;52.152;5.436;2022-08-18T05:15:23;12.57;;;9.73;;
71969;SDS011;59838;52.152;5.436;2022-08-18T05:17:51;12.98;;;9.27;;
71969;SDS011;59838;52.152;5.436;2022-08-18T05:20:23;13.05;;;8.70;;
71969;SDS011;59838;52.152;5.436;2022-08-18T05:22:52;11.18;;;8.60;;
71969;SDS011;59838;52.152;5.436;2022-08-18T05:25:25;11.88;;;9.60;;
71969;SDS011;59838;52.152;5.436;2022-08-18T05:27:58;10.07;;;7.67;;
71969;SDS011;59838;52.152;5.436;2022-08-18T05:30:31;13.52;;;8.15;;
71969;SDS011;59838;52.152;5.436;2022-08-18T05:33:05;9.43;;;7.55;;
71969;SDS011;59838;52.152;5.436;2022-08-18T05:35:37;8.15;;;7.03;;
71969;SDS011;59838;52.152;5.436;2022-08-18T05:43:39;6.95;;;6.30;;
71969;SDS011;59838;52.152;5.436;2022-08-18T05:46:46;12.77;;;7.43;;
71969;SDS011;59838;52.152;5.436;2022-08-18T05:49:17;7.47;;;6.18;;
71969;SDS011;59838;52.152;5.436;2022-08-18T05:51:55;7.72;;;6.55;;
71969;SDS011;59838;52.152;5.436;2022-08-18T05:54:40;6.73;;;5.93;;
71969;SDS011;59838;52.152;5.436;2022-08-18T05:57:31;6.85;;;6.15;;
71969;SDS011;59838;52.152;5.436;2022-08-18T06:00:13;10.77;;;6.75;;
71969;SDS011;59838;52.152;5.436;2022-08-18T06:06:50;7.07;;;6.38;;
71969;SDS011;59838;52.152;5.436;2022-08-18T06:09:31;6.67;;;5.93;;
71969;SDS011;59838;52.152;5.436;2022-08-18T06:12:30;6.38;;;5.78;;
71969;SDS011;59838;52.152;5.436;2022-08-18T06:18:21;8.10;;;5.78;;
71969;SDS011;59838;52.152;5.436;2022-08-18T06:27:24;8.65;;;5.82;;
71969;SDS011;59838;52.152;5.436;2022-08-18T06:30:04;6.88;;;5.75;;
71969;SDS011;59838;52.152;5.436;2022-08-18T06:38:21;5.53;;;4.67;;
71969;SDS011;59838;52.152;5.436;2022-08-18T06:41:16;5.38;;;4.88;;
71969;SDS011;59838;52.152;5.436;2022-08-18T06:44:10;5.07;;;4.57;;
71969;SDS011;59838;52.152;5.436;2022-08-18T06:46:46;5.13;;;4.57;;
71969;SDS011;59838;52.152;5.436;2022-08-18T06:54:53;4.82;;;4.25;;
71969;SDS011;59838;52.152;5.436;2022-08-18T06:57:23;6.55;;;4.60;;
71969;SDS011;59838;52.152;5.436;2022-08-18T07:00:05;5.13;;;4.50;;
71969;SDS011;59838;52.152;5.436;2022-08-18T07:02:56;7.43;;;4.30;;
71969;SDS011;59838;52.152;5.436;2022-08-18T07:05:35;4.90;;;4.23;;
71969;SDS011;59838;52.152;5.436;2022-08-18T07:08:36;5.80;;;3.83;;
71969;SDS011;59838;52.152;5.436;2022-08-18T07:11:21;4.93;;;4.15;;
71969;SDS011;59838;52.152;5.436;2022-08-18T07:16:44;4.78;;;4.38;;
71969;SDS011;59838;52.152;5.436;2022-08-18T07:19:26;5.97;;;5.27;;
71969;SDS011;59838;52.152;5.436;2022-08-18T07:24:49;5.22;;;4.82;;
71969;SDS011;59838;52.152;5.436;2022-08-18T07:27:39;4.97;;;3.90;;
71969;SDS011;59838;52.152;5.436;2022-08-18T07:32:56;4.50;;;4.20;;
71969;SDS011;59838;52.152;5.436;2022-08-18T07:35:35;5.28;;;3.72;;
71969;SDS011;59838;52.152;5.436;2022-08-18T07:38:16;4.25;;;3.88;;
71969;SDS011;59838;52.152;5.436;2022-08-18T07:41:23;5.72;;;4.50;;
71969;SDS011;59838;52.152;5.436;2022-08-18T07:44:26;5.10;;;4.60;;
71969;SDS011;59838;52.152;5.436;2022-08-18T07:49:47;5.85;;;4.07;;
71969;SDS011;59838;52.152;5.436;2022-08-18T07:52:48;4.63;;;4.07;;
71969;SDS011;59838;52.152;5.436;2022-08-18T08:07:23;4.07;;;3.70;;
71969;SDS011;59838;52.152;5.436;2022-08-18T08:15:45;4.53;;;3.90;;
71969;SDS011;59838;52.152;5.436;2022-08-18T08:18:35;3.58;;;3.10;;
71969;SDS011;59838;52.152;5.436;2022-08-18T08:21:18;5.85;;;3.33;;
71969;SDS011;59838;52.152;5.436;2022-08-18T08:26:35;3.67;;;3.00;;
71969;SDS011;59838;52.152;5.436;2022-08-18T08:32:00;4.45;;;3.22;;
71969;SDS011;59838;52.152;5.436;2022-08-18T08:37:34;4.97;;;3.95;;
71969;SDS011;59838;52.152;5.436;2022-08-18T08:40:25;4.30;;;3.85;;
71969;SDS011;59838;52.152;5.436;2022-08-18T08:43:09;3.20;;;2.90;;
71969;SDS011;59838;52.152;5.436;2022-08-18T08:45:44;3.75;;;3.22;;
71969;SDS011;59838;52.152;5.436;2022-08-18T08:48:24;3.63;;;3.17;;
71969;SDS011;59838;52.152;5.436;2022-08-18T08:50:56;5.57;;;3.20;;
71969;SDS011;59838;52.152;5.436;2022-08-18T08:53:44;3.55;;;2.85;;
71969;SDS011;59838;52.152;5.436;2022-08-18T08:56:19;5.63;;;3.30;;
71969;SDS011;59838;52.152;5.436;2022-08-18T08:59:02;5.68;;;2.90;;
71969;SDS011;59838;52.152;5.436;2022-08-18T09:05:08;3.40;;;2.58;;
71969;SDS011;59838;52.152;5.436;2022-08-18T09:07:49;3.17;;;2.88;;
71969;SDS011;59838;52.152;5.436;2022-08-18T09:10:44;3.20;;;2.90;;
71969;SDS011;59838;52.152;5.436;2022-08-18T09:13:42;3.70;;;2.28;;
71969;SDS011;59838;52.152;5.436;2022-08-18T09:19:25;3.15;;;2.28;;
71969;SDS011;59838;52.152;5.436;2022-08-18T09:24:55;4.83;;;2.83;;
71969;SDS011;59838;52.152;5.436;2022-08-18T09:39:32;7.63;;;2.93;;
71969;SDS011;59838;52.152;5.436;2022-08-18T09:48:23;3.92;;;2.70;;
71969;SDS011;59838;52.152;5.436;2022-08-18T09:53:52;4.87;;;2.50;;
71969;SDS011;59838;52.152;5.436;2022-08-18T10:02:06;4.13;;;2.80;;
71969;SDS011;59838;52.152;5.436;2022-08-18T10:13:39;3.45;;;2.72;;
71969;SDS011;59838;52.152;5.436;2022-08-18T10:16:42;2.55;;;2.35;;
71969;SDS011;59838;52.152;5.436;2022-08-18T10:20:09;2.92;;;2.67;;
71969;SDS011;59838;52.152;5.436;2022-08-18T10:22:56;3.60;;;2.30;;
71969;SDS011;59838;52.152;5.436;2022-08-18T10:25:35;3.72;;;2.50;;
71969;SDS011;59838;52.152;5.436;2022-08-18T10:32:15;3.58;;;2.83;;
71969;SDS011;59838;52.152;5.436;2022-08-18T10:34:43;2.95;;;2.72;;
71969;SDS011;59838;52.152;5.436;2022-08-18T10:37:24;4.50;;;2.20;;
71969;SDS011;59838;52.152;5.436;2022-08-18T10:40:12;2.20;;;2.00;;
71969;SDS011;59838;52.152;5.436;2022-08-18T10:42:57;2.15;;;1.95;;
71969;SDS011;59838;52.152;5.436;2022-08-18T10:46:01;3.88;;;2.20;;
71969;SDS011;59838;52.152;5.436;2022-08-18T10:48:58;3.05;;;2.85;;
71969;SDS011;59838;52.152;5.436;2022-08-18T10:54:57;3.78;;;2.10;;
71969;SDS011;59838;52.152;5.436;2022-08-18T11:00:40;3.83;;;2.10;;
71969;SDS011;59838;52.152;5.436;2022-08-18T11:06:24;1.73;;;1.50;;
71969;SDS011;59838;52.152;5.436;2022-08-18T11:08:53;4.18;;;2.28;;
71969;SDS011;59838;52.152;5.436;2022-08-18T11:11:36;4.03;;;2.05;;
71969;SDS011;59838;52.152;5.436;2022-08-18T11:14:37;6.15;;;2.10;;
71969;SDS011;59838;52.152;5.436;2022-08-18T11:20:30;2.83;;;2.20;;
71969;SDS011;59838;52.152;5.436;2022-08-18T11:23:12;3.38;;;1.73;;
71969;SDS011;59838;52.152;5.436;2022-08-18T11:25:41;3.13;;;2.20;;
71969;SDS011;59838;52.152;5.436;2022-08-18T11:28:20;2.45;;;2.10;;
71969;SDS011;59838;52.152;5.436;2022-08-18T11:30:56;3.00;;;2.30;;
71969;SDS011;59838;52.152;5.436;2022-08-18T11:33:33;5.60;;;2.37;;
71969;SDS011;59838;52.152;5.436;2022-08-18T11:36:02;2.55;;;2.35;;
71969;SDS011;59838;52.152;5.436;2022-08-18T11:38:32;2.65;;;1.90;;
71969;SDS011;59838;52.152;5.436;2022-08-18T11:41:13;2.50;;;2.17;;
71969;SDS011;59838;52.152;5.436;2022-08-18T11:43:44;2.85;;;2.20;;
71969;SDS011;59838;52.152;5.436;2022-08-18T11:49:16;2.75;;;1.77;;
71969;SDS011;59838;52.152;5.436;2022-08-18T11:51:56;2.00;;;1.75;;
71969;SDS011;59838;52.152;5.436;2022-08-18T11:54:34;3.58;;;2.83;;
71969;SDS011;59838;52.152;5.436;2022-08-18T11:57:26;2.83;;;2.42;;
71969;SDS011;59838;52.152;5.436;2022-08-18T12:05:51;3.83;;;1.80;;
71969;SDS011;59838;52.152;5.436;2022-08-18T12:08:32;3.60;;;2.40;;
71969;SDS011;59838;52.152;5.436;2022-08-18T12:11:24;2.95;;;1.75;;
71969;SDS011;59838;52.152;5.436;2022-08-18T12:14:07;2.73;;;1.60;;
71969;SDS011;59838;52.152;5.436;2022-08-18T12:16:58;2.42;;;1.80;;
71969;SDS011;59838;52.152;5.436;2022-08-18T12:19:31;2.33;;;1.77;;
71969;SDS011;59838;52.152;5.436;2022-08-18T12:21:59;3.38;;;2.05;;
71969;SDS011;59838;52.152;5.436;2022-08-18T12:24:37;3.00;;;2.10;;
71969;SDS011;59838;52.152;5.436;2022-08-18T12:27:19;2.67;;;1.70;;
71969;SDS011;59838;52.152;5.436;2022-08-18T12:29:50;4.00;;;2.53;;
71969;SDS011;59838;52.152;5.436;2022-08-18T12:32:28;2.65;;;2.28;;
71969;SDS011;59838;52.152;5.436;2022-08-18T12:35:27;2.42;;;2.03;;
71969;SDS011;59838;52.152;5.436;2022-08-18T12:38:00;2.90;;;2.42;;
71969;SDS011;59838;52.152;5.436;2022-08-18T12:40:38;3.97;;;1.60;;
71969;SDS011;59838;52.152;5.436;2022-08-18T12:43:13;2.70;;;2.03;;
71969;SDS011;59838;52.152;5.436;2022-08-18T12:45:47;3.58;;;1.90;;
71969;SDS011;59838;52.152;5.436;2022-08-18T12:48:14;3.63;;;1.80;;
71969;SDS011;59838;52.152;5.436;2022-08-18T12:50:49;2.38;;;1.75;;
71969;SDS011;59838;52.152;5.436;2022-08-18T12:53:24;3.30;;;1.77;;
71969;SDS011;59838;52.152;5.436;2022-08-18T12:56:25;2.20;;;1.20;;
71969;SDS011;59838;52.152;5.436;2022-08-18T12:58:57;6.13;;;1.88;;
71969;SDS011;59838;52.152;5.436;2022-08-18T13:01:34;3.55;;;1.60;;
71969;SDS011;59838;52.152;5.436;2022-08-18T13:04:09;1.60;;;1.38;;
71969;SDS011;59838;52.152;5.436;2022-08-18T13:06:56;2.10;;;1.27;;
71969;SDS011;59838;52.152;5.436;2022-08-18T13:09:33;2.05;;;1.80;;
71969;SDS011;59838;52.152;5.436;2022-08-18T13:12:19;3.28;;;1.65;;
71969;SDS011;59838;52.152;5.436;2022-08-18T13:14:54;2.65;;;2.30;;
71969;SDS011;59838;52.152;5.436;2022-08-18T13:17:27;2.42;;;2.22;;
71969;SDS011;59838;52.152;5.436;2022-08-18T13:20:07;2.73;;;2.33;;
71969;SDS011;59838;52.152;5.436;2022-08-18T13:22:53;2.80;;;2.10;;
71969;SDS011;59838;52.152;5.436;2022-08-18T13:25:20;2.33;;;2.10;;
71969;SDS011;59838;52.152;5.436;2022-08-18T13:28:05;3.55;;;2.08;;
71969;SDS011;59838;52.152;5.436;2022-08-18T13:30:31;2.38;;;2.17;;
71969;SDS011;59838;52.152;5.436;2022-08-18T13:33:07;4.60;;;1.43;;
71969;SDS011;59838;52.152;5.436;2022-08-18T13:35:54;2.85;;;2.10;;
71969;SDS011;59838;52.152;5.436;2022-08-18T13:38:27;2.90;;;2.22;;
71969;SDS011;59838;52.152;5.436;2022-08-18T13:40:56;3.38;;;1.90;;
71969;SDS011;59838;52.152;5.436;2022-08-18T13:43:30;3.10;;;1.90;;
71969;SDS011;59838;52.152;5.436;2022-08-18T13:46:07;2.97;;;1.37;;
71969;SDS011;59838;52.152;5.436;2022-08-18T13:48:36;3.35;;;2.03;;
71969;SDS011;59838;52.152;5.436;2022-08-18T13:51:20;2.60;;;1.73;;
71969;SDS011;59838;52.152;5.436;2022-08-18T13:53:48;3.00;;;1.33;;
71969;SDS011;59838;52.152;5.436;2022-08-18T13:56:43;3.70;;;1.80;;
71969;SDS011;59838;52.152;5.436;2022-08-18T13:59:18;3.40;;;1.70;;
71969;SDS011;59838;52.152;5.436;2022-08-18T14:01:47;2.38;;;1.63;;
71969;SDS011;59838;52.152;5.436;2022-08-18T14:04:18;3.95;;;2.00;;
71969;SDS011;59838;52.152;5.436;2022-08-18T14:06:53;3.78;;;1.60;;
71969;SDS011;59838;52.152;5.436;2022-08-18T14:09:23;2.65;;;1.60;;
71969;SDS011;59838;52.152;5.436;2022-08-18T14:12:04;2.83;;;1.47;;
71969;SDS011;59838;52.152;5.436;2022-08-18T14:14:48;4.28;;;1.90;;
71969;SDS011;59838;52.152;5.436;2022-08-18T14:17:24;4.18;;;2.20;;
71969;SDS011;59838;52.152;5.436;2022-08-18T14:19:51;3.05;;;2.00;;
71969;SDS011;59838;52.152;5.436;2022-08-18T14:22:53;2.10;;;1.90;;
71969;SDS011;59838;52.152;5.436;2022-08-18T14:25:47;2.47;;;1.90;;
71969;SDS011;59838;52.152;5.436;2022-08-18T14:28:39;4.28;;;1.80;;
71969;SDS011;59838;52.152;5.436;2022-08-18T14:31:06;3.30;;;2.10;;
71969;SDS011;59838;52.152;5.436;2022-08-18T14:33:45;2.35;;;2.15;;
71969;SDS011;59838;52.152;5.436;2022-08-18T14:36:17;2.53;;;1.95;;
71969;SDS011;59838;52.152;5.436;2022-08-18T14:38:55;3.07;;;2.07;;
71969;SDS011;59838;52.152;5.436;2022-08-18T14:41:29;3.03;;;2.47;;
71969;SDS011;59838;52.152;5.436;2022-08-18T14:44:19;3.50;;;2.70;;
71969;SDS011;59838;52.152;5.436;2022-08-18T14:46:58;4.75;;;2.50;;
71969;SDS011;59838;52.152;5.436;2022-08-18T14:49:25;2.28;;;2.08;;
71969;SDS011;59838;52.152;5.436;2022-08-18T14:51:54;2.93;;;1.73;;
71969;SDS011;59838;52.152;5.436;2022-08-18T14:54:35;1.90;;;1.70;;
71969;SDS011;59838;52.152;5.436;2022-08-18T14:57:03;2.65;;;1.90;;
71969;SDS011;59838;52.152;5.436;2022-08-18T14:59:44;2.00;;;1.80;;
71969;SDS011;59838;52.152;5.436;2022-08-18T15:02:22;5.68;;;2.35;;
71969;SDS011;59838;52.152;5.436;2022-08-18T15:04:55;4.63;;;1.90;;
71969;SDS011;59838;52.152;5.436;2022-08-18T15:07:45;2.72;;;2.00;;
71969;SDS011;59838;52.152;5.436;2022-08-18T15:10:12;2.80;;;2.00;;
71969;SDS011;59838;52.152;5.436;2022-08-18T15:12:52;1.90;;;1.70;;
71969;SDS011;59838;52.152;5.436;2022-08-18T15:15:19;2.95;;;1.83;;
71969;SDS011;59838;52.152;5.436;2022-08-18T15:18:13;2.23;;;1.70;;
71969;SDS011;59838;52.152;5.436;2022-08-18T15:20:48;2.08;;;1.55;;
71969;SDS011;59838;52.152;5.436;2022-08-18T15:24:00;2.72;;;1.73;;
71969;SDS011;59838;52.152;5.436;2022-08-18T15:26:46;3.17;;;1.23;;
71969;SDS011;59838;52.152;5.436;2022-08-18T15:29:23;2.40;;;2.20;;
71969;SDS011;59838;52.152;5.436;2022-08-18T15:31:54;2.63;;;2.03;;
71969;SDS011;59838;52.152;5.436;2022-08-18T15:34:35;2.15;;;1.73;;
71969;SDS011;59838;52.152;5.436;2022-08-18T15:37:16;3.05;;;1.90;;
71969;SDS011;59838;52.152;5.436;2022-08-18T15:42:59;2.05;;;1.65;;
71969;SDS011;59838;52.152;5.436;2022-08-18T15:45:35;1.93;;;1.20;;
71969;SDS011;59838;52.152;5.436;2022-08-18T15:48:23;2.30;;;1.42;;
71969;SDS011;59838;52.152;5.436;2022-08-18T15:50:51;4.25;;;1.38;;
71969;SDS011;59838;52.152;5.436;2022-08-18T15:53:37;2.10;;;1.60;;
71969;SDS011;59838;52.152;5.436;2022-08-18T15:56:11;1.95;;;1.33;;
71969;SDS011;59838;52.152;5.436;2022-08-18T15:58:46;1.27;;;1.00;;
71969;SDS011;59838;52.152;5.436;2022-08-18T16:01:14;2.17;;;1.50;;
71969;SDS011;59838;52.152;5.436;2022-08-18T16:03:58;2.22;;;1.02;;
71969;SDS011;59838;52.152;5.436;2022-08-18T16:06:35;3.22;;;1.80;;
71969;SDS011;59838;52.152;5.436;2022-08-18T16:09:10;2.45;;;1.75;;
71969;SDS011;59838;52.152;5.436;2022-08-18T16:11:37;1.70;;;1.40;;
71969;SDS011;59838;52.152;5.436;2022-08-18T16:14:03;2.03;;;1.77;;
71969;SDS011;59838;52.152;5.436;2022-08-18T16:16:37;3.30;;;1.75;;
71969;SDS011;59838;52.152;5.436;2022-08-18T16:19:11;3.13;;;1.70;;
71969;SDS011;59838;52.152;5.436;2022-08-18T16:21:38;2.45;;;1.65;;
71969;SDS011;59838;52.152;5.436;2022-08-18T16:24:05;2.67;;;1.70;;
71969;SDS011;59838;52.152;5.436;2022-08-18T16:26:43;4.88;;;2.28;;
71969;SDS011;59838;52.152;5.436;2022-08-18T16:29:17;1.98;;;1.77;;
71969;SDS011;59838;52.152;5.436;2022-08-18T16:31:51;1.77;;;1.40;;
71969;SDS011;59838;52.152;5.436;2022-08-18T16:34:18;1.95;;;1.50;;
71969;SDS011;59838;52.152;5.436;2022-08-18T16:36:56;2.13;;;1.20;;
71969;SDS011;59838;52.152;5.436;2022-08-18T16:39:22;2.40;;;1.13;;
71969;SDS011;59838;52.152;5.436;2022-08-18T16:41:49;2.30;;;1.33;;
71969;SDS011;59838;52.152;5.436;2022-08-18T16:44:21;1.85;;;1.27;;
71969;SDS011;59838;52.152;5.436;2022-08-18T16:46:49;1.60;;;1.40;;
71969;SDS011;59838;52.152;5.436;2022-08-18T16:49:18;2.17;;;1.20;;
71969;SDS011;59838;52.152;5.436;2022-08-18T16:52:25;3.03;;;1.75;;
71969;SDS011;59838;52.152;5.436;2022-08-18T16:54:59;2.30;;;1.80;;
71969;SDS011;59838;52.152;5.436;2022-08-18T16:57:33;5.97;;;1.80;;
71969;SDS011;59838;52.152;5.436;2022-08-18T17:00:26;1.85;;;1.58;;
71969;SDS011;59838;52.152;5.436;2022-08-18T17:03:21;1.97;;;1.53;;
71969;SDS011;59838;52.152;5.436;2022-08-18T17:06:16;1.65;;;1.25;;
71969;SDS011;59838;52.152;5.436;2022-08-18T17:08:49;2.45;;;1.23;;
71969;SDS011;59838;52.152;5.436;2022-08-18T17:11:16;2.63;;;1.33;;
71969;SDS011;59838;52.152;5.436;2022-08-18T17:13:44;1.40;;;1.23;;
71969;SDS011;59838;52.152;5.436;2022-08-18T17:16:20;1.40;;;1.30;;
71969;SDS011;59838;52.152;5.436;2022-08-18T17:18:55;1.88;;;1.65;;
71969;SDS011;59838;52.152;5.436;2022-08-18T17:21:29;2.53;;;1.52;;
71969;SDS011;59838;52.152;5.436;2022-08-18T17:24:05;1.33;;;1.08;;
71969;SDS011;59838;52.152;5.436;2022-08-18T17:26:52;3.17;;;1.25;;
71969;SDS011;59838;52.152;5.436;2022-08-18T17:32:18;1.55;;;1.10;;
71969;SDS011;59838;52.152;5.436;2022-08-18T17:34:53;3.17;;;1.25;;
71969;SDS011;59838;52.152;5.436;2022-08-18T17:37:38;2.08;;;1.00;;
71969;SDS011;59838;52.152;5.436;2022-08-18T17:40:16;1.75;;;1.20;;
71969;SDS011;59838;52.152;5.436;2022-08-18T17:42:55;3.30;;;1.33;;
71969;SDS011;59838;52.152;5.436;2022-08-18T17:45:25;1.60;;;0.80;;
71969;SDS011;59838;52.152;5.436;2022-08-18T17:48:06;2.13;;;1.20;;
71969;SDS011;59838;52.152;5.436;2022-08-18T17:50:39;1.30;;;1.20;;
71969;SDS011;59838;52.152;5.436;2022-08-18T17:53:35;2.63;;;1.33;;
71969;SDS011;59838;52.152;5.436;2022-08-18T17:56:06;2.60;;;1.37;;
71969;SDS011;59838;52.152;5.436;2022-08-18T17:58:48;2.60;;;1.25;;
71969;SDS011;59838;52.152;5.436;2022-08-18T18:01:21;1.95;;;1.13;;
71969;SDS011;59838;52.152;5.436;2022-08-18T18:03:54;1.20;;;1.00;;
71969;SDS011;59838;52.152;5.436;2022-08-18T18:09:08;2.70;;;1.10;;
71969;SDS011;59838;52.152;5.436;2022-08-18T18:11:39;2.10;;;1.30;;
71969;SDS011;59838;52.152;5.436;2022-08-18T18:14:34;2.25;;;1.00;;
71969;SDS011;59838;52.152;5.436;2022-08-18T18:17:07;1.45;;;1.00;;
71969;SDS011;59838;52.152;5.436;2022-08-18T18:19:48;1.45;;;1.05;;